createdAt,value
2019-02-08T00:00:24.958Z,2.80
2019-02-08T00:02:54.511Z,2.80
2019-02-08T00:05:23.361Z,2.80
2019-02-08T00:07:52.215Z,2.80
2019-02-08T00:10:21.491Z,2.80
2019-02-08T00:12:50.446Z,2.80
2019-02-08T00:15:21.633Z,2.80
2019-02-08T00:17:50.677Z,2.80
2019-02-08T00:20:20.514Z,2.80
2019-02-08T00:22:49.523Z,2.80
2019-02-08T00:25:22.714Z,2.90
2019-02-08T00:27:51.639Z,2.80
2019-02-08T00:30:25.625Z,2.80
2019-02-08T00:32:54.554Z,2.80
2019-02-08T00:35:23.849Z,2.80
2019-02-08T00:37:52.841Z,2.70
2019-02-08T00:40:22.748Z,2.70
2019-02-08T00:42:51.582Z,2.70
2019-02-08T00:45:21.478Z,2.70
2019-02-08T00:47:50.229Z,2.70
2019-02-08T00:50:26.624Z,2.70
2019-02-08T00:52:55.835Z,2.70
2019-02-08T00:55:25.232Z,2.70
2019-02-08T00:57:54.427Z,2.70
2019-02-08T01:00:23.823Z,2.70
2019-02-08T01:02:53.913Z,2.70
2019-02-08T01:05:25.198Z,2.70
2019-02-08T01:07:54.706Z,2.70
2019-02-08T01:10:26.397Z,2.70
2019-02-08T01:12:55.306Z,2.70
2019-02-08T01:15:25.637Z,2.70
2019-02-08T01:17:54.725Z,2.70
2019-02-08T01:20:25.040Z,2.70
2019-02-08T01:22:54.249Z,2.70
2019-02-08T01:25:27.982Z,2.60
2019-02-08T01:27:56.776Z,2.60
2019-02-08T01:30:35.651Z,2.60
2019-02-08T01:33:04.838Z,2.70
2019-02-08T01:35:33.555Z,2.70
2019-02-08T01:38:02.425Z,2.70
2019-02-08T01:40:36.794Z,2.70
2019-02-08T01:43:07.025Z,2.70
2019-02-08T01:45:35.837Z,2.70
2019-02-08T01:48:06.979Z,2.70
2019-02-08T01:50:35.763Z,2.80
2019-02-08T01:53:05.252Z,2.80
2019-02-08T01:55:34.098Z,2.80
2019-02-08T01:58:03.100Z,2.80
2019-02-08T02:00:34.800Z,2.80
2019-02-08T02:03:04.521Z,2.80
2019-02-08T02:05:33.327Z,2.90
2019-02-08T02:08:02.100Z,2.90
2019-02-08T02:10:36.327Z,2.90
2019-02-08T02:13:05.700Z,2.80
2019-02-08T02:15:34.820Z,2.90
2019-02-08T02:18:04.286Z,2.90
2019-02-08T02:20:38.162Z,2.90
2019-02-08T02:23:08.042Z,2.90
2019-02-08T02:25:36.902Z,2.90
2019-02-08T02:28:06.604Z,2.90
2019-02-08T02:30:36.711Z,3.00
2019-02-08T02:33:08.603Z,3.00
2019-02-08T02:35:37.424Z,3.10
2019-02-08T02:38:06.860Z,3.00
2019-02-08T02:40:35.725Z,3.00
2019-02-08T02:43:05.571Z,3.00
2019-02-08T02:45:37.533Z,3.00
2019-02-08T02:48:07.857Z,3.00
2019-02-08T02:50:36.759Z,3.00
2019-02-08T02:53:05.889Z,3.00
2019-02-08T02:55:34.704Z,3.00
2019-02-08T02:58:03.793Z,3.00
2019-02-08T03:00:35.532Z,3.00
2019-02-08T03:03:04.696Z,3.00
2019-02-08T03:05:33.583Z,3.00
2019-02-08T03:08:02.412Z,2.90
2019-02-08T03:10:31.258Z,2.90
2019-02-08T03:13:00.064Z,2.80
2019-02-08T03:15:28.816Z,2.80
2019-02-08T03:17:57.628Z,2.80
2019-02-08T03:20:26.399Z,2.70
2019-02-08T03:22:55.256Z,2.60
2019-02-08T03:25:25.961Z,2.60
2019-02-08T03:27:54.995Z,2.60
2019-02-08T03:30:30.927Z,2.50
2019-02-08T03:32:59.840Z,2.50
2019-02-08T03:35:29.130Z,2.50
2019-02-08T03:37:57.892Z,2.50
2019-02-08T03:40:28.859Z,2.50
2019-02-08T03:42:58.278Z,2.50
2019-02-08T03:45:40.928Z,2.60
2019-02-08T03:48:10.490Z,2.60
2019-02-08T03:50:39.567Z,2.60
2019-02-08T03:53:09.293Z,2.50
2019-02-08T03:55:39.133Z,2.50
2019-02-08T03:58:08.529Z,2.60
2019-02-08T04:00:45.515Z,2.60
2019-02-08T04:03:14.320Z,2.70
2019-02-08T04:05:43.258Z,2.70
2019-02-08T04:08:12.063Z,2.70
2019-02-08T04:10:40.861Z,2.70
2019-02-08T04:13:09.637Z,2.80
2019-02-08T04:15:38.652Z,2.80
2019-02-08T04:18:07.367Z,2.70
2019-02-08T04:20:36.141Z,2.70
2019-02-08T04:23:05.000Z,2.70
2019-02-08T04:25:33.922Z,2.70
2019-02-08T04:28:02.815Z,2.70
2019-02-08T04:30:32.743Z,2.70
2019-02-08T04:33:02.766Z,2.70
2019-02-08T04:35:31.384Z,2.60
2019-02-08T04:38:00.112Z,2.70
2019-02-08T04:40:28.968Z,2.60
2019-02-08T04:42:58.065Z,2.50
2019-02-08T04:45:26.980Z,2.40
2019-02-08T04:47:55.734Z,2.40
2019-02-08T04:50:28.292Z,2.40
2019-02-08T04:52:58.004Z,2.40
2019-02-08T04:55:27.145Z,2.40
2019-02-08T04:57:56.056Z,2.40
2019-02-08T05:00:30.121Z,2.40
2019-02-08T05:02:59.084Z,2.40
2019-02-08T05:05:27.914Z,2.30
2019-02-08T05:07:56.802Z,2.20
2019-02-08T05:10:27.704Z,2.30
2019-02-08T05:12:56.530Z,2.30
2019-02-08T05:15:25.972Z,2.30
2019-02-08T05:17:54.837Z,2.20
2019-02-08T05:20:26.274Z,2.20
2019-02-08T05:22:55.048Z,2.10
2019-02-08T05:25:23.936Z,2.20
2019-02-08T05:27:52.937Z,2.20
2019-02-08T05:30:24.941Z,2.20
2019-02-08T05:32:53.874Z,2.10
2019-02-08T05:35:22.734Z,2.10
2019-02-08T05:37:51.509Z,2.10
2019-02-08T05:40:21.659Z,2.10
2019-02-08T05:42:50.448Z,2.10
2019-02-08T05:45:22.005Z,2.00
2019-02-08T05:47:50.960Z,2.10
2019-02-08T05:50:25.728Z,2.10
2019-02-08T05:52:54.476Z,2.00
2019-02-08T05:55:25.755Z,2.00
2019-02-08T05:57:54.670Z,2.00
2019-02-08T06:00:30.510Z,2.00
2019-02-08T06:02:59.325Z,2.00
2019-02-08T06:05:28.104Z,2.00
2019-02-08T06:07:56.964Z,2.00
2019-02-08T06:10:25.819Z,2.10
2019-02-08T06:12:54.645Z,2.20
2019-02-08T06:15:24.728Z,2.20
2019-02-08T06:17:53.733Z,2.30
2019-02-08T06:20:24.135Z,2.30
2019-02-08T06:22:53.215Z,2.30
2019-02-08T06:25:24.283Z,2.30
2019-02-08T06:27:53.059Z,2.30
2019-02-08T06:30:24.008Z,2.40
2019-02-08T06:32:52.852Z,2.40
2019-02-08T06:35:23.570Z,2.40
2019-02-08T06:37:52.779Z,2.50
2019-02-08T06:40:24.676Z,2.60
2019-02-08T06:42:53.975Z,2.60
2019-02-08T06:45:27.067Z,2.60
2019-02-08T06:47:55.934Z,2.60
2019-02-08T06:50:26.562Z,2.70
2019-02-08T06:52:55.655Z,2.80
2019-02-08T06:55:25.744Z,3.10
2019-02-08T06:57:59.704Z,3.40
2019-02-08T07:00:36.224Z,3.80
2019-02-08T07:03:23.742Z,4.20
2019-02-08T07:06:06.074Z,4.70
2019-02-08T07:08:39.403Z,5.10
2019-02-08T07:11:12.549Z,5.50
2019-02-08T07:13:48.562Z,5.80
2019-02-08T07:16:37.469Z,5.80
2019-02-08T07:19:11.249Z,6.30
2019-02-08T07:21:44.638Z,7.10
2019-02-08T07:24:15.444Z,7.80
2019-02-08T07:26:46.050Z,7.90
2019-02-08T07:29:19.460Z,8.00
2019-02-08T07:32:04.832Z,7.30
2019-02-08T07:34:50.354Z,7.50
2019-02-08T07:37:39.406Z,8.80
2019-02-08T07:40:15.640Z,9.60
2019-02-08T07:42:46.779Z,10.30
2019-02-08T07:45:18.294Z,11.10
2019-02-08T07:48:01.261Z,11.70
2019-02-08T07:50:34.723Z,11.90
2019-02-08T07:53:23.756Z,11.80
2019-02-08T07:55:56.948Z,12.00
2019-02-08T07:58:39.831Z,12.40
2019-02-08T08:01:10.865Z,12.30
2019-02-08T08:03:41.431Z,12.80
2019-02-08T08:06:19.373Z,12.30
2019-02-08T08:08:52.688Z,12.50
2019-02-08T08:11:41.313Z,13.30
2019-02-08T08:14:19.103Z,13.80
2019-02-08T08:17:04.980Z,14.40
2019-02-08T08:19:48.356Z,15.10
2019-02-08T08:22:35.338Z,15.40
2019-02-08T08:25:20.325Z,15.00
2019-02-08T08:28:07.744Z,15.80
2019-02-08T08:30:38.618Z,16.30
2019-02-08T08:33:12.088Z,17.30
2019-02-08T08:35:56.035Z,17.50
2019-02-08T08:38:33.800Z,17.90
2019-02-08T08:41:32.965Z,17.30
2019-02-08T08:44:25.743Z,17.60
2019-02-08T08:47:18.483Z,17.90
2019-02-08T08:50:09.830Z,17.70
2019-02-08T08:52:53.382Z,17.70
2019-02-08T08:55:42.412Z,18.90
2019-02-08T08:58:39.392Z,19.50
2019-02-08T09:01:27.674Z,20.10
2019-02-08T09:04:22.349Z,20.70
2019-02-08T09:06:54.243Z,20.00
2019-02-08T09:09:51.836Z,20.30
2019-02-08T09:12:36.197Z,20.60
2019-02-08T09:15:13.842Z,20.30
2019-02-08T09:17:48.387Z,20.90
2019-02-08T09:20:39.136Z,21.60
2019-02-08T09:23:39.944Z,22.20
2019-02-08T09:26:22.150Z,21.90
2019-02-08T09:29:05.949Z,22.50
2019-02-08T09:31:46.829Z,22.40
2019-02-08T09:34:27.267Z,23.20
2019-02-08T09:37:29.534Z,23.80
2019-02-08T09:40:11.625Z,23.80
2019-02-08T09:42:58.359Z,23.00
2019-02-08T09:45:36.204Z,22.50
2019-02-08T09:48:23.237Z,22.70
2019-02-08T09:51:21.371Z,22.90
2019-02-08T09:54:03.397Z,23.80
2019-02-08T09:56:44.651Z,22.80
2019-02-08T09:59:48.931Z,23.70
2019-02-08T10:02:29.856Z,24.00
2019-02-08T10:05:24.180Z,24.00
2019-02-08T10:08:14.548Z,23.50
2019-02-08T10:11:03.245Z,23.80
2019-02-08T10:13:53.270Z,24.50
2019-02-08T10:16:41.510Z,25.20
2019-02-08T10:19:28.557Z,25.40
2019-02-08T10:22:34.245Z,25.50
2019-02-08T10:25:24.060Z,25.20
2019-02-08T10:28:17.180Z,25.00
2019-02-08T10:31:05.591Z,24.80
2019-02-08T10:33:57.071Z,25.10
2019-02-08T10:36:57.686Z,24.80
2019-02-08T10:39:54.618Z,24.60
2019-02-08T10:42:41.605Z,24.70
2019-02-08T10:45:19.227Z,26.00
2019-02-08T10:48:07.356Z,26.80
2019-02-08T10:51:12.490Z,25.80
2019-02-08T10:53:59.382Z,25.60
2019-02-08T10:56:57.039Z,25.50
2019-02-08T10:59:52.877Z,26.30
2019-02-08T11:02:33.550Z,25.80
2019-02-08T11:05:35.789Z,26.20
2019-02-08T11:08:23.875Z,26.40
2019-02-08T11:11:27.672Z,27.00
2019-02-08T11:14:05.355Z,26.00
2019-02-08T11:16:55.390Z,26.10
2019-02-08T11:19:23.006Z,26.70
2019-02-08T11:21:52.100Z,26.80
2019-02-08T11:24:21.883Z,25.90
2019-02-08T11:26:50.847Z,25.50
2019-02-08T11:29:19.672Z,27.00
2019-02-08T11:31:48.450Z,26.80
2019-02-08T11:34:17.287Z,26.70
2019-02-08T11:36:46.254Z,25.90
2019-02-08T11:39:16.760Z,25.50
2019-02-08T11:41:46.827Z,25.30
2019-02-08T11:44:16.067Z,27.00
2019-02-08T11:46:45.392Z,26.80
2019-02-08T11:49:14.242Z,27.30
2019-02-08T11:51:43.111Z,28.00
2019-02-08T11:54:12.331Z,28.40
2019-02-08T11:56:41.349Z,28.70
2019-02-08T11:59:10.209Z,29.60
2019-02-08T12:01:40.759Z,29.70
2019-02-08T12:04:09.995Z,30.10
2019-02-08T12:06:38.768Z,28.40
2019-02-08T12:09:13.013Z,28.10
2019-02-08T12:11:42.027Z,29.10
2019-02-08T12:14:11.076Z,28.40
2019-02-08T12:16:40.203Z,28.70
2019-02-08T12:19:09.017Z,28.80
2019-02-08T12:21:37.944Z,27.50
2019-02-08T12:24:07.204Z,27.70
2019-02-08T12:26:37.965Z,27.60
2019-02-08T12:29:07.012Z,27.00
2019-02-08T12:31:35.940Z,27.50
2019-02-08T12:34:05.247Z,27.10
2019-02-08T12:36:35.461Z,27.20
2019-02-08T12:39:06.217Z,27.50
2019-02-08T12:41:35.105Z,27.30
2019-02-08T12:44:04.221Z,27.60
2019-02-08T12:46:33.145Z,28.30
2019-02-08T12:49:14.175Z,27.20
2019-02-08T12:51:43.118Z,26.70
2019-02-08T12:54:11.958Z,26.10
2019-02-08T12:56:45.422Z,26.30
2019-02-08T12:59:11.297Z,26.50
2019-02-08T13:01:40.448Z,25.70
2019-02-08T13:04:09.333Z,25.50
2019-02-08T13:06:38.184Z,25.30
2019-02-08T13:09:09.765Z,25.70
2019-02-08T13:11:38.601Z,26.00
2019-02-08T13:14:08.818Z,25.50
2019-02-08T13:16:37.615Z,25.90
2019-02-08T13:19:06.398Z,25.70
2019-02-08T13:21:35.388Z,25.70
2019-02-08T13:24:05.034Z,25.90
2019-02-08T13:26:34.186Z,25.60
2019-02-08T13:29:03.057Z,25.10
2019-02-08T13:31:31.752Z,24.60
2019-02-08T13:34:00.516Z,24.20
2019-02-08T13:36:29.239Z,23.50
2019-02-08T13:38:57.949Z,23.40
2019-02-08T13:41:26.728Z,23.40
2019-02-08T13:43:55.611Z,23.70
2019-02-08T13:46:24.485Z,22.30
2019-02-08T13:48:53.282Z,22.90
2019-02-08T13:51:22.135Z,23.20
2019-02-08T13:53:50.968Z,23.10
2019-02-08T13:56:19.803Z,22.70
2019-02-08T13:58:48.541Z,22.40
2019-02-08T14:01:17.380Z,22.10
2019-02-08T14:03:46.162Z,21.80
2019-02-08T14:06:15.010Z,21.00
2019-02-08T14:08:43.793Z,19.60
2019-02-08T14:11:12.564Z,16.20
2019-02-08T14:13:41.271Z,14.70
2019-02-08T14:16:09.962Z,13.90
2019-02-08T14:18:38.875Z,15.80
2019-02-08T14:21:07.818Z,16.70
2019-02-08T14:23:36.522Z,16.60
2019-02-08T14:26:05.355Z,16.10
2019-02-08T14:28:34.279Z,15.90
2019-02-08T14:31:03.100Z,14.50
2019-02-08T14:33:31.951Z,13.30
2019-02-08T14:36:00.784Z,11.50
2019-02-08T14:38:29.583Z,10.40
2019-02-08T14:40:58.696Z,9.60
2019-02-08T14:43:27.518Z,8.80
2019-02-08T14:45:57.952Z,8.20
2019-02-08T14:48:26.740Z,7.90
2019-02-08T14:50:55.403Z,7.50
2019-02-08T14:53:24.176Z,7.20
2019-02-08T14:55:53.280Z,6.90
2019-02-08T14:58:22.174Z,6.70
2019-02-08T15:00:50.946Z,6.70
2019-02-08T15:03:19.782Z,6.60
2019-02-08T15:05:48.913Z,6.60
2019-02-08T15:08:17.552Z,6.40
2019-02-08T15:10:49.747Z,6.30
2019-02-08T15:13:18.736Z,6.20
2019-02-08T15:15:47.742Z,6.20
2019-02-08T15:18:16.640Z,6.10
2019-02-08T15:20:45.418Z,6.00
2019-02-08T15:23:14.330Z,6.00
2019-02-08T15:25:43.375Z,6.00
2019-02-08T15:28:12.280Z,6.00
2019-02-08T15:30:41.076Z,5.90
2019-02-08T15:33:09.885Z,5.80
2019-02-08T15:35:38.777Z,5.70
2019-02-08T15:38:07.639Z,5.50
2019-02-08T15:40:46.334Z,5.40
2019-02-08T15:43:17.892Z,5.30
2019-02-08T15:45:50.154Z,5.20
2019-02-08T15:48:19.073Z,5.20
2019-02-08T15:50:48.027Z,5.10
2019-02-08T15:53:16.762Z,4.90
2019-02-08T15:56:00.682Z,4.80
2019-02-08T15:58:29.550Z,4.70
2019-02-08T16:00:58.548Z,4.70
2019-02-08T16:03:27.400Z,4.60
2019-02-08T16:05:56.299Z,4.50
2019-02-08T16:08:25.012Z,4.40
2019-02-08T16:10:53.909Z,4.30
2019-02-08T16:13:23.117Z,4.20
2019-02-08T16:15:51.990Z,4.10
2019-02-08T16:18:21.045Z,4.10
2019-02-08T16:20:49.949Z,4.10
2019-02-08T16:23:18.682Z,4.20
2019-02-08T16:25:47.581Z,4.10
2019-02-08T16:28:16.305Z,4.20
2019-02-08T16:30:45.146Z,4.20
2019-02-08T16:33:13.894Z,4.20
2019-02-08T16:35:42.939Z,4.10
2019-02-08T16:38:11.704Z,4.00
2019-02-08T16:40:40.549Z,4.00
2019-02-08T16:43:09.354Z,3.80
2019-02-08T16:45:39.997Z,3.80
2019-02-08T16:48:12.798Z,3.70
2019-02-08T16:50:43.135Z,3.70
2019-02-08T16:53:12.575Z,3.60
2019-02-08T16:55:41.511Z,3.60
2019-02-08T16:58:11.265Z,3.60
2019-02-08T17:00:42.019Z,3.50
2019-02-08T17:03:14.050Z,3.50
2019-02-08T17:05:43.317Z,3.40
2019-02-08T17:08:12.247Z,3.50
2019-02-08T17:10:41.278Z,3.40
2019-02-08T17:13:10.393Z,3.40
2019-02-08T17:15:39.066Z,3.40
2019-02-08T17:18:08.783Z,3.30
2019-02-08T17:20:42.519Z,3.20
2019-02-08T17:23:11.384Z,3.20
2019-02-08T17:25:40.305Z,3.10
2019-02-08T17:28:09.801Z,3.10
2019-02-08T17:30:38.898Z,3.10
2019-02-08T17:33:09.087Z,3.20
2019-02-08T17:35:38.128Z,3.20
2019-02-08T17:38:07.382Z,3.10
2019-02-08T17:40:39.207Z,3.00
2019-02-08T17:43:08.208Z,2.90
2019-02-08T17:45:37.283Z,2.90
2019-02-08T17:48:09.571Z,2.90
2019-02-08T17:50:38.396Z,2.90
2019-02-08T17:53:07.279Z,2.90
2019-02-08T17:55:37.182Z,2.80
2019-02-08T17:58:05.972Z,2.70
2019-02-08T18:00:51.278Z,2.70
2019-02-08T18:03:20.142Z,2.70
2019-02-08T18:05:48.943Z,2.80
2019-02-08T18:08:18.199Z,2.80
2019-02-08T18:10:47.018Z,2.70
2019-02-08T18:13:16.912Z,2.70
2019-02-08T18:15:45.981Z,2.60
2019-02-08T18:18:16.835Z,2.60
2019-02-08T18:20:57.706Z,2.70
2019-02-08T18:23:26.733Z,2.60
2019-02-08T18:25:55.453Z,2.70
2019-02-08T18:28:24.403Z,2.70
2019-02-08T18:30:53.172Z,2.70
2019-02-08T18:33:22.853Z,2.60
2019-02-08T18:35:52.067Z,2.50
2019-02-08T18:38:22.267Z,2.50
2019-02-08T18:40:51.174Z,2.50
2019-02-08T18:43:21.702Z,2.50
2019-02-08T18:45:50.687Z,2.40
2019-02-08T18:48:19.529Z,2.40
2019-02-08T18:50:52.132Z,2.30
2019-02-08T18:53:20.895Z,2.20
2019-02-08T18:55:49.797Z,2.20
2019-02-08T18:58:19.558Z,2.10
2019-02-08T19:00:53.237Z,2.10
2019-02-08T19:03:23.460Z,2.10
2019-02-08T19:05:52.270Z,2.00
2019-02-08T19:08:21.086Z,2.00
2019-02-08T19:10:49.914Z,2.00
2019-02-08T19:13:18.671Z,1.90
2019-02-08T19:15:47.384Z,1.90
2019-02-08T19:18:16.445Z,1.90
2019-02-08T19:20:45.261Z,1.90
2019-02-08T19:23:14.068Z,1.80
2019-02-08T19:25:44.822Z,1.80
2019-02-08T19:28:14.733Z,1.80
2019-02-08T19:30:44.533Z,1.80
2019-02-08T19:33:13.668Z,1.80
2019-02-08T19:35:42.681Z,1.80
2019-02-08T19:38:11.674Z,1.70
2019-02-08T19:40:43.173Z,1.70
2019-02-08T19:43:13.616Z,1.70
2019-02-08T19:45:42.458Z,1.60
2019-02-08T19:48:11.824Z,1.60
2019-02-08T19:50:42.713Z,1.50
2019-02-08T19:53:11.464Z,1.50
2019-02-08T19:55:40.990Z,1.50
2019-02-08T19:58:10.603Z,1.50
2019-02-08T20:00:58.846Z,1.50
2019-02-08T20:03:27.581Z,1.50
2019-02-08T20:05:56.373Z,1.40
2019-02-08T20:08:25.273Z,1.40
2019-02-08T20:10:54.049Z,1.30
2019-02-08T20:13:22.750Z,1.30
2019-02-08T20:15:51.612Z,1.30
2019-02-08T20:18:20.468Z,1.30
2019-02-08T20:20:49.255Z,1.30
2019-02-08T20:23:18.512Z,1.30
2019-02-08T20:25:47.273Z,1.20
2019-02-08T20:28:16.041Z,1.20
2019-02-08T20:30:44.931Z,1.20
2019-02-08T20:33:14.162Z,1.20
2019-02-08T20:35:42.862Z,1.20
2019-02-08T20:38:11.771Z,1.20
2019-02-08T20:40:48.786Z,1.30
2019-02-08T20:43:17.713Z,1.30
2019-02-08T20:45:46.806Z,1.30
2019-02-08T20:48:17.874Z,1.40
2019-02-08T20:50:46.852Z,1.20
2019-02-08T20:53:15.813Z,1.20
2019-02-08T20:55:44.812Z,1.20
2019-02-08T20:58:13.816Z,1.20
2019-02-08T21:00:45.564Z,1.30
2019-02-08T21:03:14.971Z,1.40
2019-02-08T21:05:44.529Z,1.50
2019-02-08T21:08:14.287Z,1.60
2019-02-08T21:10:43.497Z,1.70
2019-02-08T21:13:13.057Z,1.60
2019-02-08T21:15:41.774Z,1.60
2019-02-08T21:18:10.857Z,1.70
2019-02-08T21:20:40.190Z,1.70
2019-02-08T21:23:09.827Z,1.90
2019-02-08T21:25:41.081Z,2.10
2019-02-08T21:28:10.132Z,2.20
2019-02-08T21:30:39.282Z,2.20
2019-02-08T21:33:10.408Z,2.30
2019-02-08T21:35:39.595Z,2.30
2019-02-08T21:38:09.746Z,2.20
2019-02-08T21:40:39.116Z,2.20
2019-02-08T21:43:08.136Z,2.10
2019-02-08T21:45:41.838Z,2.20
2019-02-08T21:48:11.857Z,2.20
2019-02-08T21:50:40.802Z,2.20
2019-02-08T21:53:09.675Z,2.20
2019-02-08T21:55:38.440Z,2.20
2019-02-08T21:58:07.210Z,2.30
2019-02-08T22:00:41.574Z,2.30
2019-02-08T22:03:10.846Z,2.30
2019-02-08T22:05:48.261Z,2.40
2019-02-08T22:08:16.961Z,2.40
2019-02-08T22:10:45.890Z,2.40
2019-02-08T22:13:14.703Z,2.40
2019-02-08T22:15:45.238Z,2.40
2019-02-08T22:18:14.076Z,2.40
2019-02-08T22:20:43.619Z,2.40
2019-02-08T22:23:12.857Z,2.40
2019-02-08T22:25:41.719Z,2.30
2019-02-08T22:28:10.870Z,2.30
2019-02-08T22:30:40.138Z,2.30
2019-02-08T22:33:12.216Z,2.30
2019-02-08T22:35:41.180Z,2.30
2019-02-08T22:38:10.362Z,2.30
2019-02-08T22:40:39.198Z,2.40
2019-02-08T22:43:08.124Z,2.40
2019-02-08T22:45:38.903Z,2.30
2019-02-08T22:48:08.098Z,2.30
2019-02-08T22:50:36.930Z,2.30
2019-02-08T22:53:07.575Z,2.30
2019-02-08T22:55:36.828Z,2.30
2019-02-08T22:58:07.991Z,2.40
2019-02-08T23:00:43.497Z,2.40
2019-02-08T23:03:14.270Z,2.40
2019-02-08T23:05:45.797Z,2.30
2019-02-08T23:08:14.046Z,2.30
2019-02-08T23:10:42.802Z,2.30
2019-02-08T23:13:12.418Z,2.40
2019-02-08T23:15:41.380Z,2.30
2019-02-08T23:18:11.242Z,2.30
2019-02-08T23:20:39.965Z,2.30
2019-02-08T23:23:09.008Z,2.30
2019-02-08T23:25:37.806Z,2.30
2019-02-08T23:28:07.194Z,2.30
2019-02-08T23:30:36.471Z,2.30
2019-02-08T23:33:05.867Z,2.20
2019-02-08T23:35:41.853Z,2.20
2019-02-08T23:38:05.280Z,2.20
2019-02-08T23:40:34.047Z,2.20
2019-02-08T23:43:02.746Z,2.20
2019-02-08T23:45:31.531Z,2.20
2019-02-08T23:48:00.383Z,2.30
2019-02-08T23:50:29.202Z,2.30
2019-02-08T23:52:57.914Z,2.30
2019-02-08T23:55:27.975Z,2.30
2019-02-08T23:57:56.767Z,2.40
